sensor_id;sensor_type;location;lat;lon;timestamp;temperature;humidity
12264;DHT22;6194;49.010;8.414;2023-07-31T00:00:12;16.80;99.90
12264;DHT22;6194;49.010;8.414;2023-07-31T00:02:38;16.80;99.90
12264;DHT22;6194;49.010;8.414;2023-07-31T00:05:04;16.80;99.90
12264;DHT22;6194;49.010;8.414;2023-07-31T00:07:30;16.90;99.90
12264;DHT22;6194;49.010;8.414;2023-07-31T00:09:55;16.80;99.90
12264;DHT22;6194;49.010;8.414;2023-07-31T00:12:22;16.80;99.90
12264;DHT22;6194;49.010;8.414;2023-07-31T00:14:48;16.90;99.90
12264;DHT22;6194;49.010;8.414;2023-07-31T00:17:13;16.90;99.90
12264;DHT22;6194;49.010;8.414;2023-07-31T00:19:39;16.90;99.90
12264;DHT22;6194;49.010;8.414;2023-07-31T00:22:05;17.00;99.90
12264;DHT22;6194;49.010;8.414;2023-07-31T00:24:30;17.00;99.90
12264;DHT22;6194;49.010;8.414;2023-07-31T00:26:56;17.00;99.90
12264;DHT22;6194;49.010;8.414;2023-07-31T00:29:21;17.00;99.90
12264;DHT22;6194;49.010;8.414;2023-07-31T00:31:47;17.20;99.90
12264;DHT22;6194;49.010;8.414;2023-07-31T00:34:12;17.10;99.90
12264;DHT22;6194;49.010;8.414;2023-07-31T00:36:40;17.00;99.90
12264;DHT22;6194;49.010;8.414;2023-07-31T00:39:06;17.10;99.90
12264;DHT22;6194;49.010;8.414;2023-07-31T00:41:35;17.00;99.90
12264;DHT22;6194;49.010;8.414;2023-07-31T00:44:00;17.00;99.90
12264;DHT22;6194;49.010;8.414;2023-07-31T00:46:26;17.00;99.90
12264;DHT22;6194;49.010;8.414;2023-07-31T00:48:51;16.90;99.90
12264;DHT22;6194;49.010;8.414;2023-07-31T00:51:17;16.90;99.90
12264;DHT22;6194;49.010;8.414;2023-07-31T00:53:43;16.90;99.90
12264;DHT22;6194;49.010;8.414;2023-07-31T00:56:09;16.80;99.90
12264;DHT22;6194;49.010;8.414;2023-07-31T00:58:35;16.70;99.90
12264;DHT22;6194;49.010;8.414;2023-07-31T01:01:01;16.70;99.90
12264;DHT22;6194;49.010;8.414;2023-07-31T01:03:26;16.70;99.90
12264;DHT22;6194;49.010;8.414;2023-07-31T01:11:14;16.60;99.90
12264;DHT22;6194;49.010;8.414;2023-07-31T01:13:41;16.60;99.90
12264;DHT22;6194;49.010;8.414;2023-07-31T01:16:07;16.60;99.90
12264;DHT22;6194;49.010;8.414;2023-07-31T01:18:33;16.60;99.90
12264;DHT22;6194;49.010;8.414;2023-07-31T01:21:16;16.70;99.90
12264;DHT22;6194;49.010;8.414;2023-07-31T01:26:43;16.60;99.90
12264;DHT22;6194;49.010;8.414;2023-07-31T01:31:42;16.50;99.90
12264;DHT22;6194;49.010;8.414;2023-07-31T01:34:09;16.50;99.90
12264;DHT22;6194;49.010;8.414;2023-07-31T01:36:35;16.50;99.90
12264;DHT22;6194;49.010;8.414;2023-07-31T01:39:01;16.50;99.90
12264;DHT22;6194;49.010;8.414;2023-07-31T01:41:27;16.50;99.90
12264;DHT22;6194;49.010;8.414;2023-07-31T01:43:53;16.50;99.90
12264;DHT22;6194;49.010;8.414;2023-07-31T01:46:18;16.40;99.90
12264;DHT22;6194;49.010;8.414;2023-07-31T01:48:44;16.40;99.90
12264;DHT22;6194;49.010;8.414;2023-07-31T01:51:10;16.30;99.90
12264;DHT22;6194;49.010;8.414;2023-07-31T01:53:35;16.40;99.90
12264;DHT22;6194;49.010;8.414;2023-07-31T01:56:01;16.30;99.90
12264;DHT22;6194;49.010;8.414;2023-07-31T01:58:26;16.40;99.90
12264;DHT22;6194;49.010;8.414;2023-07-31T02:00:52;16.30;99.90
12264;DHT22;6194;49.010;8.414;2023-07-31T02:03:17;16.30;99.90
12264;DHT22;6194;49.010;8.414;2023-07-31T02:05:47;16.20;99.90
12264;DHT22;6194;49.010;8.414;2023-07-31T02:08:13;16.20;99.90
12264;DHT22;6194;49.010;8.414;2023-07-31T02:10:39;16.20;99.90
12264;DHT22;6194;49.010;8.414;2023-07-31T02:13:04;16.20;99.90
12264;DHT22;6194;49.010;8.414;2023-07-31T02:15:30;16.10;99.90
12264;DHT22;6194;49.010;8.414;2023-07-31T02:17:56;16.10;99.90
12264;DHT22;6194;49.010;8.414;2023-07-31T02:20:22;16.10;99.90
12264;DHT22;6194;49.010;8.414;2023-07-31T02:22:47;16.20;99.90
12264;DHT22;6194;49.010;8.414;2023-07-31T02:25:13;16.10;99.90
12264;DHT22;6194;49.010;8.414;2023-07-31T02:27:39;16.10;99.90
12264;DHT22;6194;49.010;8.414;2023-07-31T02:30:05;16.20;99.90
12264;DHT22;6194;49.010;8.414;2023-07-31T02:32:30;16.20;99.90
12264;DHT22;6194;49.010;8.414;2023-07-31T02:34:56;16.20;99.90
12264;DHT22;6194;49.010;8.414;2023-07-31T02:37:21;16.30;99.90
12264;DHT22;6194;49.010;8.414;2023-07-31T02:39:49;16.30;99.90
12264;DHT22;6194;49.010;8.414;2023-07-31T02:42:15;16.40;99.90
12264;DHT22;6194;49.010;8.414;2023-07-31T02:44:40;16.40;99.90
12264;DHT22;6194;49.010;8.414;2023-07-31T02:47:06;16.40;99.90
12264;DHT22;6194;49.010;8.414;2023-07-31T02:49:32;16.40;99.90
12264;DHT22;6194;49.010;8.414;2023-07-31T02:51:57;16.30;99.90
12264;DHT22;6194;49.010;8.414;2023-07-31T02:54:23;16.30;99.90
12264;DHT22;6194;49.010;8.414;2023-07-31T02:56:48;16.40;99.90
12264;DHT22;6194;49.010;8.414;2023-07-31T02:59:14;16.40;99.90
12264;DHT22;6194;49.010;8.414;2023-07-31T03:01:40;16.40;99.90
12264;DHT22;6194;49.010;8.414;2023-07-31T03:04:05;16.40;99.90
12264;DHT22;6194;49.010;8.414;2023-07-31T03:06:31;16.40;99.90
12264;DHT22;6194;49.010;8.414;2023-07-31T03:08:57;16.40;99.90
12264;DHT22;6194;49.010;8.414;2023-07-31T03:11:22;16.40;99.90
12264;DHT22;6194;49.010;8.414;2023-07-31T03:13:48;16.40;99.90
12264;DHT22;6194;49.010;8.414;2023-07-31T03:16:13;16.50;99.90
12264;DHT22;6194;49.010;8.414;2023-07-31T03:18:39;16.50;99.90
12264;DHT22;6194;49.010;8.414;2023-07-31T03:21:07;16.60;99.90
12264;DHT22;6194;49.010;8.414;2023-07-31T03:23:33;16.60;99.90
12264;DHT22;6194;49.010;8.414;2023-07-31T03:26:01;16.70;99.90
12264;DHT22;6194;49.010;8.414;2023-07-31T03:28:29;16.60;99.90
12264;DHT22;6194;49.010;8.414;2023-07-31T03:30:54;16.50;99.90
12264;DHT22;6194;49.010;8.414;2023-07-31T03:33:20;16.50;99.90
12264;DHT22;6194;49.010;8.414;2023-07-31T03:35:46;16.40;99.90
12264;DHT22;6194;49.010;8.414;2023-07-31T03:38:11;16.40;99.90
12264;DHT22;6194;49.010;8.414;2023-07-31T03:40:37;16.40;99.90
12264;DHT22;6194;49.010;8.414;2023-07-31T03:43:02;16.40;99.90
12264;DHT22;6194;49.010;8.414;2023-07-31T03:45:28;16.30;99.90
12264;DHT22;6194;49.010;8.414;2023-07-31T03:47:54;16.30;99.90
12264;DHT22;6194;49.010;8.414;2023-07-31T03:50:20;16.40;99.90
12264;DHT22;6194;49.010;8.414;2023-07-31T03:52:46;16.40;99.90
12264;DHT22;6194;49.010;8.414;2023-07-31T03:55:11;16.40;99.90
12264;DHT22;6194;49.010;8.414;2023-07-31T03:57:37;16.50;99.90
12264;DHT22;6194;49.010;8.414;2023-07-31T04:00:03;16.50;99.90
12264;DHT22;6194;49.010;8.414;2023-07-31T04:02:29;16.60;99.90
12264;DHT22;6194;49.010;8.414;2023-07-31T04:04:54;16.60;99.90
12264;DHT22;6194;49.010;8.414;2023-07-31T04:07:20;16.70;99.90
12264;DHT22;6194;49.010;8.414;2023-07-31T04:09:45;16.70;99.90
12264;DHT22;6194;49.010;8.414;2023-07-31T04:12:11;16.70;99.90
12264;DHT22;6194;49.010;8.414;2023-07-31T04:14:37;16.80;99.90
12264;DHT22;6194;49.010;8.414;2023-07-31T04:17:02;16.80;99.90
12264;DHT22;6194;49.010;8.414;2023-07-31T04:19:28;16.90;99.90
12264;DHT22;6194;49.010;8.414;2023-07-31T04:21:53;16.80;99.90
12264;DHT22;6194;49.010;8.414;2023-07-31T04:24:19;16.70;99.90
12264;DHT22;6194;49.010;8.414;2023-07-31T04:26:50;16.70;99.90
12264;DHT22;6194;49.010;8.414;2023-07-31T04:29:15;16.70;99.90
12264;DHT22;6194;49.010;8.414;2023-07-31T04:31:41;16.70;99.90
12264;DHT22;6194;49.010;8.414;2023-07-31T04:34:07;16.70;99.90
12264;DHT22;6194;49.010;8.414;2023-07-31T04:36:34;16.70;99.90
12264;DHT22;6194;49.010;8.414;2023-07-31T04:39:00;16.70;99.90
12264;DHT22;6194;49.010;8.414;2023-07-31T04:41:26;16.70;99.90
12264;DHT22;6194;49.010;8.414;2023-07-31T04:43:51;16.80;99.90
12264;DHT22;6194;49.010;8.414;2023-07-31T04:46:17;16.80;99.90
12264;DHT22;6194;49.010;8.414;2023-07-31T04:48:43;16.80;99.90
12264;DHT22;6194;49.010;8.414;2023-07-31T04:51:08;16.80;99.90
12264;DHT22;6194;49.010;8.414;2023-07-31T04:53:37;16.80;99.90
12264;DHT22;6194;49.010;8.414;2023-07-31T04:56:03;16.80;99.90
12264;DHT22;6194;49.010;8.414;2023-07-31T04:58:28;16.90;99.90
12264;DHT22;6194;49.010;8.414;2023-07-31T05:00:54;17.00;99.90
12264;DHT22;6194;49.010;8.414;2023-07-31T05:03:19;17.10;99.90
12264;DHT22;6194;49.010;8.414;2023-07-31T05:05:45;17.20;99.90
12264;DHT22;6194;49.010;8.414;2023-07-31T05:08:11;17.20;99.90
12264;DHT22;6194;49.010;8.414;2023-07-31T05:10:36;17.30;99.90
12264;DHT22;6194;49.010;8.414;2023-07-31T05:13:02;17.50;99.90
12264;DHT22;6194;49.010;8.414;2023-07-31T05:15:28;17.60;99.90
12264;DHT22;6194;49.010;8.414;2023-07-31T05:17:54;17.80;99.90
12264;DHT22;6194;49.010;8.414;2023-07-31T05:20:20;18.10;99.90
12264;DHT22;6194;49.010;8.414;2023-07-31T05:22:46;18.30;99.90
12264;DHT22;6194;49.010;8.414;2023-07-31T05:25:11;18.50;99.90
12264;DHT22;6194;49.010;8.414;2023-07-31T05:27:37;19.00;99.90
12264;DHT22;6194;49.010;8.414;2023-07-31T05:30:03;19.30;99.90
12264;DHT22;6194;49.010;8.414;2023-07-31T05:32:29;19.60;99.90
12264;DHT22;6194;49.010;8.414;2023-07-31T05:34:54;19.90;99.90
12264;DHT22;6194;49.010;8.414;2023-07-31T05:37:20;20.50;99.90
12264;DHT22;6194;49.010;8.414;2023-07-31T05:39:45;20.80;99.90
12264;DHT22;6194;49.010;8.414;2023-07-31T05:42:11;21.10;99.90
12264;DHT22;6194;49.010;8.414;2023-07-31T05:44:37;21.10;99.90
12264;DHT22;6194;49.010;8.414;2023-07-31T05:47:02;21.00;99.90
12264;DHT22;6194;49.010;8.414;2023-07-31T05:49:28;20.90;99.90
12264;DHT22;6194;49.010;8.414;2023-07-31T05:51:53;20.80;99.90
12264;DHT22;6194;49.010;8.414;2023-07-31T05:54:19;20.50;99.90
12264;DHT22;6194;49.010;8.414;2023-07-31T05:56:44;20.30;99.90
12264;DHT22;6194;49.010;8.414;2023-07-31T05:59:12;20.00;99.90
12264;DHT22;6194;49.010;8.414;2023-07-31T06:01:39;19.90;99.90
12264;DHT22;6194;49.010;8.414;2023-07-31T06:04:04;19.70;99.90
12264;DHT22;6194;49.010;8.414;2023-07-31T06:06:30;19.70;99.90
12264;DHT22;6194;49.010;8.414;2023-07-31T06:08:55;19.70;99.90
12264;DHT22;6194;49.010;8.414;2023-07-31T06:11:21;19.60;99.90
12264;DHT22;6194;49.010;8.414;2023-07-31T06:13:47;19.80;99.90
12264;DHT22;6194;49.010;8.414;2023-07-31T06:16:14;19.90;99.90
12264;DHT22;6194;49.010;8.414;2023-07-31T06:18:43;20.00;99.90
12264;DHT22;6194;49.010;8.414;2023-07-31T06:21:10;20.20;99.90
12264;DHT22;6194;49.010;8.414;2023-07-31T06:23:36;20.30;99.90
12264;DHT22;6194;49.010;8.414;2023-07-31T06:26:01;20.60;99.90
12264;DHT22;6194;49.010;8.414;2023-07-31T06:28:28;20.70;99.90
12264;DHT22;6194;49.010;8.414;2023-07-31T06:30:54;20.90;99.90
12264;DHT22;6194;49.010;8.414;2023-07-31T06:33:20;21.10;99.90
12264;DHT22;6194;49.010;8.414;2023-07-31T06:35:45;21.30;99.90
12264;DHT22;6194;49.010;8.414;2023-07-31T06:38:11;21.70;99.90
12264;DHT22;6194;49.010;8.414;2023-07-31T06:40:37;21.60;99.90
12264;DHT22;6194;49.010;8.414;2023-07-31T06:43:05;21.90;99.90
12264;DHT22;6194;49.010;8.414;2023-07-31T06:45:35;21.80;99.90
12264;DHT22;6194;49.010;8.414;2023-07-31T06:48:01;21.80;99.90
12264;DHT22;6194;49.010;8.414;2023-07-31T06:50:28;22.00;99.90
12264;DHT22;6194;49.010;8.414;2023-07-31T06:52:54;22.10;99.90
12264;DHT22;6194;49.010;8.414;2023-07-31T06:55:20;22.20;99.90
12264;DHT22;6194;49.010;8.414;2023-07-31T06:57:48;21.70;99.90
12264;DHT22;6194;49.010;8.414;2023-07-31T07:00:14;21.60;99.90
12264;DHT22;6194;49.010;8.414;2023-07-31T07:02:39;21.60;99.90
12264;DHT22;6194;49.010;8.414;2023-07-31T07:05:06;21.50;99.90
12264;DHT22;6194;49.010;8.414;2023-07-31T07:07:32;21.70;99.90
12264;DHT22;6194;49.010;8.414;2023-07-31T07:09:58;21.70;99.90
12264;DHT22;6194;49.010;8.414;2023-07-31T07:12:29;21.50;99.90
12264;DHT22;6194;49.010;8.414;2023-07-31T07:14:55;21.30;99.90
12264;DHT22;6194;49.010;8.414;2023-07-31T07:17:21;21.20;99.90
12264;DHT22;6194;49.010;8.414;2023-07-31T07:19:48;21.40;99.90
12264;DHT22;6194;49.010;8.414;2023-07-31T07:22:13;21.60;99.90
12264;DHT22;6194;49.010;8.414;2023-07-31T07:24:39;21.60;99.90
12264;DHT22;6194;49.010;8.414;2023-07-31T07:27:05;21.60;99.90
12264;DHT22;6194;49.010;8.414;2023-07-31T07:29:37;21.70;99.90
12264;DHT22;6194;49.010;8.414;2023-07-31T07:32:03;21.60;99.90
12264;DHT22;6194;49.010;8.414;2023-07-31T07:34:29;21.80;99.90
12264;DHT22;6194;49.010;8.414;2023-07-31T07:36:55;22.30;99.90
12264;DHT22;6194;49.010;8.414;2023-07-31T07:39:20;22.70;99.90
12264;DHT22;6194;49.010;8.414;2023-07-31T07:41:46;22.80;99.90
12264;DHT22;6194;49.010;8.414;2023-07-31T07:44:12;22.20;99.90
12264;DHT22;6194;49.010;8.414;2023-07-31T07:46:38;22.30;99.90
12264;DHT22;6194;49.010;8.414;2023-07-31T07:49:04;22.30;99.90
12264;DHT22;6194;49.010;8.414;2023-07-31T07:51:30;22.20;99.90
12264;DHT22;6194;49.010;8.414;2023-07-31T07:53:57;22.30;99.90
12264;DHT22;6194;49.010;8.414;2023-07-31T07:56:25;22.40;99.90
12264;DHT22;6194;49.010;8.414;2023-07-31T07:58:54;22.60;99.90
12264;DHT22;6194;49.010;8.414;2023-07-31T08:01:20;22.80;99.90
12264;DHT22;6194;49.010;8.414;2023-07-31T08:03:46;22.80;99.90
12264;DHT22;6194;49.010;8.414;2023-07-31T08:06:12;22.70;99.90
12264;DHT22;6194;49.010;8.414;2023-07-31T08:08:38;22.60;99.90
12264;DHT22;6194;49.010;8.414;2023-07-31T08:11:04;22.30;99.90
12264;DHT22;6194;49.010;8.414;2023-07-31T08:13:30;22.10;99.90
12264;DHT22;6194;49.010;8.414;2023-07-31T08:15:58;22.40;99.90
12264;DHT22;6194;49.010;8.414;2023-07-31T08:18:23;22.50;99.90
12264;DHT22;6194;49.010;8.414;2023-07-31T08:20:49;22.70;99.90
12264;DHT22;6194;49.010;8.414;2023-07-31T08:23:15;22.90;99.90
12264;DHT22;6194;49.010;8.414;2023-07-31T08:25:40;22.80;99.90
12264;DHT22;6194;49.010;8.414;2023-07-31T08:28:06;22.70;99.90
12264;DHT22;6194;49.010;8.414;2023-07-31T08:30:32;22.60;99.90
12264;DHT22;6194;49.010;8.414;2023-07-31T08:33:01;22.60;99.90
12264;DHT22;6194;49.010;8.414;2023-07-31T08:35:28;22.80;99.90
12264;DHT22;6194;49.010;8.414;2023-07-31T08:37:54;23.40;99.90
12264;DHT22;6194;49.010;8.414;2023-07-31T08:40:20;24.10;99.90
12264;DHT22;6194;49.010;8.414;2023-07-31T08:42:48;24.80;99.90
12264;DHT22;6194;49.010;8.414;2023-07-31T08:45:16;24.90;99.90
12264;DHT22;6194;49.010;8.414;2023-07-31T08:47:46;25.00;99.90
12264;DHT22;6194;49.010;8.414;2023-07-31T08:50:16;24.90;99.90
12264;DHT22;6194;49.010;8.414;2023-07-31T08:52:42;25.30;99.90
12264;DHT22;6194;49.010;8.414;2023-07-31T08:55:09;25.70;99.90
12264;DHT22;6194;49.010;8.414;2023-07-31T08:57:36;26.10;99.90
12264;DHT22;6194;49.010;8.414;2023-07-31T09:00:04;25.90;99.90
12264;DHT22;6194;49.010;8.414;2023-07-31T09:02:52;25.90;99.90
12264;DHT22;6194;49.010;8.414;2023-07-31T09:05:19;25.40;99.90
12264;DHT22;6194;49.010;8.414;2023-07-31T09:07:47;25.40;99.90
12264;DHT22;6194;49.010;8.414;2023-07-31T09:10:15;25.20;99.90
12264;DHT22;6194;49.010;8.414;2023-07-31T09:12:40;25.00;99.90
12264;DHT22;6194;49.010;8.414;2023-07-31T09:15:06;24.60;99.90
12264;DHT22;6194;49.010;8.414;2023-07-31T09:17:34;24.80;99.90
12264;DHT22;6194;49.010;8.414;2023-07-31T09:20:19;25.30;99.90
12264;DHT22;6194;49.010;8.414;2023-07-31T09:22:46;25.30;99.90
12264;DHT22;6194;49.010;8.414;2023-07-31T09:28:01;26.20;99.90
12264;DHT22;6194;49.010;8.414;2023-07-31T09:30:27;26.20;99.90
12264;DHT22;6194;49.010;8.414;2023-07-31T09:33:05;25.90;99.90
12264;DHT22;6194;49.010;8.414;2023-07-31T09:35:34;25.60;99.90
12264;DHT22;6194;49.010;8.414;2023-07-31T09:38:10;25.90;99.90
12264;DHT22;6194;49.010;8.414;2023-07-31T09:40:41;25.70;99.90
12264;DHT22;6194;49.010;8.414;2023-07-31T09:43:11;25.50;99.90
12264;DHT22;6194;49.010;8.414;2023-07-31T09:45:41;25.90;99.90
12264;DHT22;6194;49.010;8.414;2023-07-31T09:48:17;25.90;99.90
12264;DHT22;6194;49.010;8.414;2023-07-31T09:50:45;26.00;99.90
12264;DHT22;6194;49.010;8.414;2023-07-31T09:53:11;25.70;99.90
12264;DHT22;6194;49.010;8.414;2023-07-31T09:55:40;25.80;99.90
12264;DHT22;6194;49.010;8.414;2023-07-31T09:58:11;25.70;99.90
12264;DHT22;6194;49.010;8.414;2023-07-31T10:00:37;25.90;99.90
12264;DHT22;6194;49.010;8.414;2023-07-31T10:03:08;25.60;99.90
12264;DHT22;6194;49.010;8.414;2023-07-31T10:08:01;24.90;99.90
12264;DHT22;6194;49.010;8.414;2023-07-31T10:10:28;24.90;99.90
12264;DHT22;6194;49.010;8.414;2023-07-31T10:12:55;25.20;99.90
12264;DHT22;6194;49.010;8.414;2023-07-31T10:15:21;25.40;99.90
12264;DHT22;6194;49.010;8.414;2023-07-31T10:17:48;25.40;99.90
12264;DHT22;6194;49.010;8.414;2023-07-31T10:20:15;25.30;99.90
12264;DHT22;6194;49.010;8.414;2023-07-31T10:22:44;25.30;99.90
12264;DHT22;6194;49.010;8.414;2023-07-31T10:25:15;25.30;99.90
12264;DHT22;6194;49.010;8.414;2023-07-31T10:27:41;25.20;99.90
12264;DHT22;6194;49.010;8.414;2023-07-31T10:30:14;25.30;99.90
12264;DHT22;6194;49.010;8.414;2023-07-31T10:32:41;25.40;99.90
12264;DHT22;6194;49.010;8.414;2023-07-31T10:35:09;25.60;99.90
12264;DHT22;6194;49.010;8.414;2023-07-31T10:37:42;25.60;99.90
12264;DHT22;6194;49.010;8.414;2023-07-31T10:40:13;25.40;99.90
12264;DHT22;6194;49.010;8.414;2023-07-31T10:42:50;25.50;99.90
12264;DHT22;6194;49.010;8.414;2023-07-31T10:45:26;25.50;99.90
12264;DHT22;6194;49.010;8.414;2023-07-31T10:47:59;25.40;99.90
12264;DHT22;6194;49.010;8.414;2023-07-31T10:50:30;24.90;99.90
12264;DHT22;6194;49.010;8.414;2023-07-31T10:52:58;25.30;99.90
12264;DHT22;6194;49.010;8.414;2023-07-31T10:55:42;25.40;99.90
12264;DHT22;6194;49.010;8.414;2023-07-31T10:58:11;25.00;99.90
12264;DHT22;6194;49.010;8.414;2023-07-31T11:00:44;25.30;99.90
12264;DHT22;6194;49.010;8.414;2023-07-31T11:03:17;25.40;99.90
12264;DHT22;6194;49.010;8.414;2023-07-31T11:05:51;25.40;99.90
12264;DHT22;6194;49.010;8.414;2023-07-31T11:08:26;25.90;99.90
12264;DHT22;6194;49.010;8.414;2023-07-31T11:11:12;25.90;99.90
12264;DHT22;6194;49.010;8.414;2023-07-31T11:16:13;25.50;99.90
12264;DHT22;6194;49.010;8.414;2023-07-31T11:18:40;25.80;99.90
12264;DHT22;6194;49.010;8.414;2023-07-31T11:21:07;26.20;99.90
12264;DHT22;6194;49.010;8.414;2023-07-31T11:23:33;26.40;99.90
12264;DHT22;6194;49.010;8.414;2023-07-31T11:25:59;26.40;99.90
12264;DHT22;6194;49.010;8.414;2023-07-31T11:28:31;26.20;99.90
12264;DHT22;6194;49.010;8.414;2023-07-31T11:30:57;26.40;99.90
12264;DHT22;6194;49.010;8.414;2023-07-31T11:33:22;26.70;99.90
12264;DHT22;6194;49.010;8.414;2023-07-31T11:35:48;26.60;99.90
12264;DHT22;6194;49.010;8.414;2023-07-31T11:38:33;26.60;99.90
12264;DHT22;6194;49.010;8.414;2023-07-31T11:41:01;26.60;99.90
12264;DHT22;6194;49.010;8.414;2023-07-31T11:43:31;26.50;99.90
12264;DHT22;6194;49.010;8.414;2023-07-31T11:45:58;26.20;99.90
12264;DHT22;6194;49.010;8.414;2023-07-31T11:48:29;26.20;99.90
12264;DHT22;6194;49.010;8.414;2023-07-31T11:50:58;26.10;99.90
12264;DHT22;6194;49.010;8.414;2023-07-31T11:53:36;26.20;99.90
12264;DHT22;6194;49.010;8.414;2023-07-31T11:56:04;26.40;99.90
12264;DHT22;6194;49.010;8.414;2023-07-31T11:58:31;26.60;99.90
12264;DHT22;6194;49.010;8.414;2023-07-31T12:00:58;26.60;99.90
12264;DHT22;6194;49.010;8.414;2023-07-31T12:03:24;26.70;99.90
12264;DHT22;6194;49.010;8.414;2023-07-31T12:05:49;26.60;99.90
12264;DHT22;6194;49.010;8.414;2023-07-31T12:08:15;26.60;99.90
12264;DHT22;6194;49.010;8.414;2023-07-31T12:10:41;26.40;99.90
12264;DHT22;6194;49.010;8.414;2023-07-31T12:13:19;26.10;99.90
12264;DHT22;6194;49.010;8.414;2023-07-31T12:15:45;26.00;99.90
12264;DHT22;6194;49.010;8.414;2023-07-31T12:18:13;25.90;99.90
12264;DHT22;6194;49.010;8.414;2023-07-31T12:20:44;26.40;99.90
12264;DHT22;6194;49.010;8.414;2023-07-31T12:23:20;26.40;99.90
12264;DHT22;6194;49.010;8.414;2023-07-31T12:26:06;26.20;99.90
12264;DHT22;6194;49.010;8.414;2023-07-31T12:33:42;26.60;99.90
12264;DHT22;6194;49.010;8.414;2023-07-31T12:36:13;26.40;99.90
12264;DHT22;6194;49.010;8.414;2023-07-31T12:38:39;25.90;99.90
12264;DHT22;6194;49.010;8.414;2023-07-31T12:41:05;25.80;99.90
12264;DHT22;6194;49.010;8.414;2023-07-31T12:43:32;25.90;99.90
12264;DHT22;6194;49.010;8.414;2023-07-31T12:45:59;25.80;99.90
12264;DHT22;6194;49.010;8.414;2023-07-31T12:48:24;26.20;99.90
12264;DHT22;6194;49.010;8.414;2023-07-31T12:50:50;26.20;99.90
12264;DHT22;6194;49.010;8.414;2023-07-31T12:53:16;26.10;99.90
12264;DHT22;6194;49.010;8.414;2023-07-31T12:55:41;26.10;99.90
12264;DHT22;6194;49.010;8.414;2023-07-31T12:58:07;26.10;99.90
12264;DHT22;6194;49.010;8.414;2023-07-31T13:00:33;26.50;99.90
12264;DHT22;6194;49.010;8.414;2023-07-31T13:02:59;26.70;99.90
12264;DHT22;6194;49.010;8.414;2023-07-31T13:05:26;26.90;99.90
12264;DHT22;6194;49.010;8.414;2023-07-31T13:07:51;26.80;99.90
12264;DHT22;6194;49.010;8.414;2023-07-31T13:10:17;27.00;99.90
12264;DHT22;6194;49.010;8.414;2023-07-31T13:12:45;27.10;99.90
12264;DHT22;6194;49.010;8.414;2023-07-31T13:15:11;27.40;99.90
12264;DHT22;6194;49.010;8.414;2023-07-31T13:17:37;26.80;99.90
12264;DHT22;6194;49.010;8.414;2023-07-31T13:20:03;26.90;99.90
12264;DHT22;6194;49.010;8.414;2023-07-31T13:22:29;27.20;99.90
12264;DHT22;6194;49.010;8.414;2023-07-31T13:24:55;27.50;99.90
12264;DHT22;6194;49.010;8.414;2023-07-31T13:27:20;27.50;99.90
12264;DHT22;6194;49.010;8.414;2023-07-31T13:29:48;26.90;99.90
12264;DHT22;6194;49.010;8.414;2023-07-31T13:32:15;26.90;99.90
12264;DHT22;6194;49.010;8.414;2023-07-31T13:34:41;26.80;99.90
12264;DHT22;6194;49.010;8.414;2023-07-31T13:37:06;26.60;99.90
12264;DHT22;6194;49.010;8.414;2023-07-31T13:39:32;26.40;99.90
12264;DHT22;6194;49.010;8.414;2023-07-31T13:41:59;26.00;99.90
12264;DHT22;6194;49.010;8.414;2023-07-31T13:44:24;25.80;99.90
12264;DHT22;6194;49.010;8.414;2023-07-31T13:46:50;25.80;99.90
12264;DHT22;6194;49.010;8.414;2023-07-31T13:49:16;26.00;99.90
12264;DHT22;6194;49.010;8.414;2023-07-31T13:51:42;26.10;99.90
12264;DHT22;6194;49.010;8.414;2023-07-31T13:54:07;26.20;99.90
12264;DHT22;6194;49.010;8.414;2023-07-31T13:56:33;26.50;99.90
12264;DHT22;6194;49.010;8.414;2023-07-31T13:58:58;26.60;99.90
12264;DHT22;6194;49.010;8.414;2023-07-31T14:01:26;27.00;99.90
12264;DHT22;6194;49.010;8.414;2023-07-31T14:03:52;27.00;99.90
12264;DHT22;6194;49.010;8.414;2023-07-31T14:06:17;27.10;99.90
12264;DHT22;6194;49.010;8.414;2023-07-31T14:08:43;27.40;99.90
12264;DHT22;6194;49.010;8.414;2023-07-31T14:11:08;27.30;99.90
12264;DHT22;6194;49.010;8.414;2023-07-31T14:13:34;26.60;99.90
12264;DHT22;6194;49.010;8.414;2023-07-31T14:15:59;26.50;99.90
12264;DHT22;6194;49.010;8.414;2023-07-31T14:18:25;26.40;99.90
12264;DHT22;6194;49.010;8.414;2023-07-31T14:20:52;25.90;99.90
12264;DHT22;6194;49.010;8.414;2023-07-31T14:23:17;25.40;99.90
12264;DHT22;6194;49.010;8.414;2023-07-31T14:25:45;25.30;99.90
12264;DHT22;6194;49.010;8.414;2023-07-31T14:28:11;25.30;99.90
12264;DHT22;6194;49.010;8.414;2023-07-31T14:30:36;24.90;99.90
12264;DHT22;6194;49.010;8.414;2023-07-31T14:33:02;24.90;99.90
12264;DHT22;6194;49.010;8.414;2023-07-31T14:35:28;24.80;99.90
12264;DHT22;6194;49.010;8.414;2023-07-31T14:37:53;24.90;99.90
12264;DHT22;6194;49.010;8.414;2023-07-31T14:40:19;24.90;99.90
12264;DHT22;6194;49.010;8.414;2023-07-31T14:42:45;24.90;99.90
12264;DHT22;6194;49.010;8.414;2023-07-31T14:45:13;25.00;99.90
12264;DHT22;6194;49.010;8.414;2023-07-31T14:47:38;25.30;99.90
12264;DHT22;6194;49.010;8.414;2023-07-31T14:50:04;25.70;99.90
12264;DHT22;6194;49.010;8.414;2023-07-31T14:52:30;25.90;99.90
12264;DHT22;6194;49.010;8.414;2023-07-31T14:54:56;26.00;99.90
12264;DHT22;6194;49.010;8.414;2023-07-31T14:57:24;26.10;99.90
12264;DHT22;6194;49.010;8.414;2023-07-31T14:59:50;26.10;99.90
12264;DHT22;6194;49.010;8.414;2023-07-31T15:02:15;26.20;99.90
12264;DHT22;6194;49.010;8.414;2023-07-31T15:04:41;26.30;99.90
12264;DHT22;6194;49.010;8.414;2023-07-31T15:07:07;26.60;99.90
12264;DHT22;6194;49.010;8.414;2023-07-31T15:09:33;26.30;99.90
12264;DHT22;6194;49.010;8.414;2023-07-31T15:11:58;26.60;99.90
12264;DHT22;6194;49.010;8.414;2023-07-31T15:14:24;26.60;99.90
12264;DHT22;6194;49.010;8.414;2023-07-31T15:16:52;26.50;99.90
12264;DHT22;6194;49.010;8.414;2023-07-31T15:19:18;26.60;99.90
12264;DHT22;6194;49.010;8.414;2023-07-31T15:21:43;27.00;99.90
12264;DHT22;6194;49.010;8.414;2023-07-31T15:24:09;27.20;99.90
12264;DHT22;6194;49.010;8.414;2023-07-31T15:26:35;27.40;99.90
12264;DHT22;6194;49.010;8.414;2023-07-31T15:29:06;27.60;99.90
12264;DHT22;6194;49.010;8.414;2023-07-31T15:31:39;27.50;99.90
12264;DHT22;6194;49.010;8.414;2023-07-31T15:34:05;27.20;99.90
12264;DHT22;6194;49.010;8.414;2023-07-31T15:36:31;26.80;99.90
12264;DHT22;6194;49.010;8.414;2023-07-31T15:38:57;26.60;99.90
12264;DHT22;6194;49.010;8.414;2023-07-31T15:41:23;26.30;99.90
12264;DHT22;6194;49.010;8.414;2023-07-31T15:43:49;25.90;99.90
12264;DHT22;6194;49.010;8.414;2023-07-31T15:46:15;25.60;99.90
12264;DHT22;6194;49.010;8.414;2023-07-31T15:48:40;25.50;99.90
12264;DHT22;6194;49.010;8.414;2023-07-31T15:51:06;25.40;99.90
12264;DHT22;6194;49.010;8.414;2023-07-31T15:53:32;25.20;99.90
12264;DHT22;6194;49.010;8.414;2023-07-31T15:55:58;24.90;99.90
12264;DHT22;6194;49.010;8.414;2023-07-31T15:58:23;24.80;99.90
12264;DHT22;6194;49.010;8.414;2023-07-31T16:00:49;24.60;99.90
12264;DHT22;6194;49.010;8.414;2023-07-31T16:03:15;24.20;99.90
12264;DHT22;6194;49.010;8.414;2023-07-31T16:05:41;23.70;99.90